This is the latest recevied weather packets stored in our database for station/object KG5MMT-12. If no packets are shown the sender has not sent any weather packets the latest 1 day(s).
| Time | Temp. | Humidity | Pressure | Rain* | Wind** | Luminosity | Snow |
|---|---|---|---|---|---|---|---|
| 1836274593 | 12.78° C | 81% | 0 hPa | 0 mm | 0 m/s | - | - |
| 1836274446 | 12.78° C | 80% | 0 hPa | 0 mm | 0 m/s | - | - |
| 1836274292 | 12.78° C | 80% | 0 hPa | 0 mm | 0 m/s | - | - |
| 1836274142 | 12.78° C | 80% | 0 hPa | 0 mm | 0 m/s | - | - |
| 1836273996 | 12.78° C | 80% | 0 hPa | 0 mm | 0 m/s | - | - |
| 1778057328 | 7.22° C | 53% | 0 hPa | 0 mm | 0 m/s | - | - |
| 1778057028 | 7.22° C | 52% | 0 hPa | 0 mm | 0.45 m/s, 341° | - | - |
| 1778056728 | 7.22° C | 54% | 0 hPa | 0 mm | 3.58 m/s, 230° | - | - |
| 1778056428 | 7.78° C | 54% | 0 hPa | 0 mm | 1.34 m/s, 336° | - | - |
| 1778056128 | 7.22° C | 54% | 0 hPa | 0 mm | 3.13 m/s, 267° | - | - |
| 1778055828 | 7.78° C | 54% | 0 hPa | 0 mm | 0 m/s | - | - |
| 1778055528 | 7.78° C | 53% | 0 hPa | 0 mm | 0 m/s | - | - |
| 1778055228 | 7.78° C | 53% | 0 hPa | 0 mm | 4.92 m/s, 227° | - | - |
| 1778054928 | 7.78° C | 53% | 0 hPa | 0 mm | 0 m/s | - | - |
| 1778054628 | 7.78° C | 53% | 0 hPa | 0 mm | 1.79 m/s, 240° | - | - |
| 1778054328 | 7.78° C | 53% | 0 hPa | 0 mm | 0.45 m/s, 233° | - | - |
| 1778054028 | 7.78° C | 53% | 0 hPa | 0 mm | 0.89 m/s, 285° | - | - |
| 1778053728 | 8.33° C | 53% | 0 hPa | 0 mm | 3.58 m/s, 248° | - | - |
| 1778053428 | 8.33° C | 53% | 0 hPa | 0 mm | 0 m/s | - | - |
| 1778053128 | 8.33° C | 56% | 0 hPa | 0 mm | 0 m/s | - | - |
| 1778052828 | 8.33° C | 53% | 0 hPa | 0 mm | 0.89 m/s, 246° | - | - |
| 1778052528 | 8.33° C | 52% | 0 hPa | 0 mm | 1.34 m/s, 253° | - | - |
| 1778052228 | 8.33° C | 53% | 0 hPa | 0 mm | 0.89 m/s, 299° | - | - |
| 1778051928 | 8.33° C | 53% | 0 hPa | 0 mm | 0.45 m/s, 299° | - | - |
| 1778051628 | 7.78° C | 54% | 0 hPa | 0 mm | 0.89 m/s, 220° | - | - |
* Rain latest hour (hover to see other rain measurements)
** Current wind speed in m/s (hover to see current wind gust speed)